createdAt,value
2018-05-11T00:00:09.008Z,993.86
2018-05-11T00:01:08.859Z,993.85
2018-05-11T00:02:08.847Z,993.86
2018-05-11T00:03:08.852Z,993.86
2018-05-11T00:04:08.846Z,993.83
2018-05-11T00:05:08.982Z,993.9
2018-05-11T00:06:08.845Z,993.86
2018-05-11T00:07:08.843Z,993.87
2018-05-11T00:08:08.848Z,993.82
2018-05-11T00:09:08.836Z,993.82
2018-05-11T00:10:09.001Z,993.8
2018-05-11T00:11:08.835Z,993.85
2018-05-11T00:12:08.832Z,993.83
2018-05-11T00:13:08.828Z,993.85
2018-05-11T00:14:08.825Z,993.85
2018-05-11T00:15:09.023Z,993.83
2018-05-11T00:16:08.842Z,993.81
2018-05-11T00:17:08.824Z,993.81
2018-05-11T00:18:08.820Z,993.82
2018-05-11T00:19:08.817Z,993.87
2018-05-11T00:20:08.950Z,993.84
2018-05-11T00:21:08.818Z,993.84
2018-05-11T00:22:08.812Z,993.84
2018-05-11T00:23:08.811Z,993.85
2018-05-11T00:24:08.805Z,993.81
2018-05-11T00:25:08.877Z,993.81
2018-05-11T00:26:08.812Z,993.79
2018-05-11T00:27:08.807Z,993.79
2018-05-11T00:28:08.808Z,993.78
2018-05-11T00:29:08.798Z,993.79
2018-05-11T00:30:08.835Z,993.76
2018-05-11T00:31:08.800Z,993.77
2018-05-11T00:32:08.791Z,993.74
2018-05-11T00:33:08.792Z,993.74
2018-05-11T00:34:08.789Z,993.77
2018-05-11T00:35:08.831Z,993.78
2018-05-11T00:36:08.784Z,993.73
2018-05-11T00:37:08.783Z,993.76
2018-05-11T00:38:08.778Z,993.78
2018-05-11T00:39:08.781Z,993.8
2018-05-11T00:40:08.913Z,993.78
2018-05-11T00:41:08.777Z,993.8
2018-05-11T00:42:08.772Z,993.79
2018-05-11T00:43:08.774Z,993.78
2018-05-11T00:44:08.767Z,993.82
2018-05-11T00:45:09.027Z,993.81
2018-05-11T00:46:08.762Z,993.8
2018-05-11T00:47:08.762Z,993.79
2018-05-11T00:48:08.760Z,993.81
2018-05-11T00:49:08.757Z,993.83
2018-05-11T00:50:09.057Z,993.81
2018-05-11T00:51:08.848Z,993.82
2018-05-11T00:52:08.756Z,993.82
2018-05-11T00:53:08.768Z,993.93
2018-05-11T00:54:08.747Z,993.89
2018-05-11T00:55:08.765Z,993.89
2018-05-11T00:56:08.743Z,993.93
2018-05-11T00:57:08.741Z,993.95
2018-05-11T00:58:08.739Z,993.91
2018-05-11T00:59:08.739Z,993.95
2018-05-11T01:00:08.804Z,993.93
2018-05-11T01:01:08.732Z,993.92
2018-05-11T01:02:08.725Z,993.92
2018-05-11T01:03:08.727Z,993.94
2018-05-11T01:04:08.781Z,993.87
2018-05-11T01:05:08.757Z,993.91
2018-05-11T01:06:08.714Z,993.93
2018-05-11T01:07:08.713Z,993.87
2018-05-11T01:08:08.713Z,993.9
2018-05-11T01:09:08.715Z,993.91
2018-05-11T01:10:08.907Z,993.9
2018-05-11T01:11:08.722Z,993.91
2018-05-11T01:12:08.701Z,993.92
2018-05-11T01:13:08.712Z,993.88
2018-05-11T01:14:08.697Z,993.93
2018-05-11T01:15:08.886Z,993.92
2018-05-11T01:16:08.691Z,993.9
2018-05-11T01:17:08.707Z,993.89
2018-05-11T01:18:08.688Z,993.87
2018-05-11T01:19:08.687Z,993.88
2018-05-11T01:20:08.842Z,993.88
2018-05-11T01:21:08.679Z,993.9
2018-05-11T01:22:08.676Z,993.9
2018-05-11T01:23:08.673Z,993.9
2018-05-11T01:24:08.671Z,993.86
2018-05-11T01:25:08.895Z,993.88
2018-05-11T01:26:08.665Z,993.89
2018-05-11T01:27:08.665Z,993.9
2018-05-11T01:28:08.664Z,993.88
2018-05-11T01:29:08.657Z,993.89
2018-05-11T01:30:08.697Z,993.88
2018-05-11T01:31:08.653Z,993.92
2018-05-11T01:32:08.650Z,993.91
2018-05-11T01:33:08.648Z,993.94
2018-05-11T01:34:08.645Z,993.88
2018-05-11T01:35:08.858Z,993.92
2018-05-11T01:36:08.639Z,993.91
2018-05-11T01:37:08.639Z,993.89
2018-05-11T01:38:08.636Z,993.9
2018-05-11T01:39:08.644Z,993.87
2018-05-11T01:40:08.748Z,993.87
2018-05-11T01:41:08.648Z,993.88
2018-05-11T01:42:08.622Z,993.88
2018-05-11T01:43:08.620Z,993.86
2018-05-11T01:44:08.624Z,993.88
2018-05-11T01:45:08.723Z,993.89
2018-05-11T01:46:08.612Z,993.91
2018-05-11T01:47:08.613Z,993.88
2018-05-11T01:48:08.608Z,993.89
2018-05-11T01:49:08.612Z,993.93
2018-05-11T01:50:08.744Z,993.93
2018-05-11T01:51:08.601Z,993.95
2018-05-11T01:52:08.605Z,993.97
2018-05-11T01:53:08.691Z,993.96
2018-05-11T01:54:08.591Z,993.94
2018-05-11T01:55:08.751Z,993.96
2018-05-11T01:56:08.588Z,993.94
2018-05-11T01:57:08.583Z,993.96
2018-05-11T01:58:08.591Z,993.96
2018-05-11T01:59:08.581Z,993.97
2018-05-11T02:00:08.653Z,993.98
2018-05-11T02:01:08.574Z,993.96
2018-05-11T02:02:08.577Z,993.99
2018-05-11T02:03:08.567Z,993.98
2018-05-11T02:04:08.583Z,994.02
2018-05-11T02:05:08.642Z,994.01
2018-05-11T02:06:08.559Z,994.02
2018-05-11T02:07:08.555Z,994.07
2018-05-11T02:08:08.552Z,994.08
2018-05-11T02:09:08.557Z,994.07
2018-05-11T02:10:08.745Z,994.06
2018-05-11T02:11:08.542Z,994.06
2018-05-11T02:12:08.540Z,994.08
2018-05-11T02:13:08.558Z,994.04
2018-05-11T02:14:08.533Z,994.03
2018-05-11T02:15:08.657Z,994.04
2018-05-11T02:16:08.532Z,994.05
2018-05-11T02:17:08.532Z,994.03
2018-05-11T02:18:08.528Z,994.03
2018-05-11T02:19:08.523Z,994.01
2018-05-11T02:20:08.779Z,994
2018-05-11T02:21:08.515Z,993.98
2018-05-11T02:22:08.510Z,993.99
2018-05-11T02:23:08.507Z,993.95
2018-05-11T02:24:08.507Z,993.97
2018-05-11T02:25:08.654Z,993.93
2018-05-11T02:26:08.500Z,993.98
2018-05-11T02:27:08.496Z,993.95
2018-05-11T02:28:08.524Z,993.9
2018-05-11T02:29:08.488Z,993.91
2018-05-11T02:30:08.904Z,993.9
2018-05-11T02:31:08.487Z,993.89
2018-05-11T02:32:08.481Z,993.92
2018-05-11T02:33:08.479Z,993.95
2018-05-11T02:34:08.475Z,993.91
2018-05-11T02:35:08.619Z,993.93
2018-05-11T02:36:08.467Z,993.92
2018-05-11T02:37:08.466Z,993.97
2018-05-11T02:38:08.462Z,993.91
2018-05-11T02:39:08.461Z,993.97
2018-05-11T02:40:08.526Z,993.92
2018-05-11T02:41:08.455Z,993.88
2018-05-11T02:42:08.452Z,993.88
2018-05-11T02:43:08.465Z,993.87
2018-05-11T02:44:08.452Z,993.89
2018-05-11T02:45:08.547Z,993.9
2018-05-11T02:46:08.439Z,993.88
2018-05-11T02:47:08.444Z,993.9
2018-05-11T02:48:08.433Z,993.91
2018-05-11T02:49:08.431Z,993.94
2018-05-11T02:50:08.506Z,993.93
2018-05-11T02:51:08.424Z,993.96
2018-05-11T02:52:08.423Z,993.95
2018-05-11T02:53:08.435Z,993.95
2018-05-11T02:54:08.418Z,993.95
2018-05-11T02:55:09.384Z,993.97
2018-05-11T02:56:08.439Z,994
2018-05-11T02:57:08.412Z,993.99
2018-05-11T02:58:08.411Z,993.98
2018-05-11T02:59:08.403Z,993.98
2018-05-11T03:00:08.495Z,993.95
2018-05-11T03:01:08.392Z,993.96
2018-05-11T03:02:08.393Z,994.01
2018-05-11T03:03:08.391Z,993.98
2018-05-11T03:04:08.387Z,993.97
2018-05-11T03:05:08.434Z,993.99
2018-05-11T03:06:08.380Z,993.98
2018-05-11T03:07:08.375Z,994
2018-05-11T03:08:08.373Z,993.95
2018-05-11T03:09:08.368Z,993.94
2018-05-11T03:10:08.508Z,993.93
2018-05-11T03:11:08.363Z,993.93
2018-05-11T03:12:08.359Z,993.96
2018-05-11T03:13:08.366Z,993.94
2018-05-11T03:14:08.352Z,993.97
2018-05-11T03:15:08.472Z,994.03
2018-05-11T03:16:08.344Z,994.05
2018-05-11T03:17:08.338Z,994.04
2018-05-11T03:18:08.335Z,994.03
2018-05-11T03:19:08.340Z,994.06
2018-05-11T03:20:08.413Z,994.03
2018-05-11T03:21:08.323Z,994.04
2018-05-11T03:22:08.324Z,994.04
2018-05-11T03:23:08.316Z,994.02
2018-05-11T03:24:08.335Z,994.07
2018-05-11T03:25:08.357Z,994.05
2018-05-11T03:26:08.306Z,994.07
2018-05-11T03:27:08.301Z,994.03
2018-05-11T03:28:08.299Z,994.07
2018-05-11T03:29:08.294Z,994.05
2018-05-11T03:30:08.377Z,994.08
2018-05-11T03:31:08.289Z,994.08
2018-05-11T03:32:08.284Z,994.06
2018-05-11T03:33:08.282Z,994.05
2018-05-11T03:34:08.278Z,994.12
2018-05-11T03:35:08.444Z,994.12
2018-05-11T03:36:08.269Z,994.15
2018-05-11T03:37:08.268Z,994.17
2018-05-11T03:38:08.264Z,994.18
2018-05-11T03:39:08.259Z,994.21
2018-05-11T03:40:08.400Z,994.19
2018-05-11T03:41:08.254Z,994.21
2018-05-11T03:42:08.252Z,994.2
2018-05-11T03:43:08.258Z,994.21
2018-05-11T03:44:08.243Z,994.2
2018-05-11T03:45:08.317Z,994.22
2018-05-11T03:46:08.240Z,994.21
2018-05-11T03:47:08.231Z,994.18
2018-05-11T03:48:08.226Z,994.19
2018-05-11T03:49:08.400Z,994.19
2018-05-11T03:50:08.259Z,994.17
2018-05-11T03:51:08.215Z,994.24
2018-05-11T03:52:08.214Z,994.23
2018-05-11T03:53:08.212Z,994.21
2018-05-11T03:54:08.208Z,994.21
2018-05-11T03:55:08.363Z,994.22
2018-05-11T03:56:08.202Z,994.17
2018-05-11T03:57:08.205Z,994.15
2018-05-11T03:58:08.195Z,994.17
2018-05-11T03:59:08.191Z,994.12
2018-05-11T04:00:08.359Z,994.16
2018-05-11T04:01:08.184Z,994.12
2018-05-11T04:02:08.182Z,994.12
2018-05-11T04:03:08.184Z,994.12
2018-05-11T04:04:08.178Z,994.14
2018-05-11T04:05:08.191Z,994.11
2018-05-11T04:06:08.170Z,994.13
2018-05-11T04:07:08.183Z,994.18
2018-05-11T04:08:08.168Z,994.12
2018-05-11T04:09:08.161Z,994.1
2018-05-11T04:10:08.314Z,994.12
2018-05-11T04:11:08.154Z,994.08
2018-05-11T04:12:08.152Z,994.16
2018-05-11T04:13:08.226Z,994.13
2018-05-11T04:14:08.145Z,994.12
2018-05-11T04:15:08.165Z,994.11
2018-05-11T04:16:08.137Z,994.12
2018-05-11T04:17:08.139Z,994.11
2018-05-11T04:18:08.139Z,994.14
2018-05-11T04:19:08.130Z,994.12
2018-05-11T04:20:08.244Z,994.16
2018-05-11T04:21:08.127Z,994.15
2018-05-11T04:22:08.130Z,994.21
2018-05-11T04:23:08.142Z,994.23
2018-05-11T04:24:08.120Z,994.21
2018-05-11T04:25:08.252Z,994.25
2018-05-11T04:26:08.110Z,994.26
2018-05-11T04:27:08.109Z,994.26
2018-05-11T04:28:08.135Z,994.26
2018-05-11T04:29:08.103Z,994.28
2018-05-11T04:30:08.321Z,994.24
2018-05-11T04:31:08.099Z,994.23
2018-05-11T04:32:08.097Z,994.27
2018-05-11T04:33:08.105Z,994.31
2018-05-11T04:34:08.108Z,994.26
2018-05-11T04:35:08.103Z,994.26
2018-05-11T04:36:08.089Z,994.26
2018-05-11T04:37:08.106Z,994.26
2018-05-11T04:38:08.101Z,994.26
2018-05-11T04:39:08.080Z,994.27
2018-05-11T04:40:08.166Z,994.25
2018-05-11T04:41:08.078Z,994.29
2018-05-11T04:42:08.076Z,994.28
2018-05-11T04:43:08.093Z,994.3
2018-05-11T04:44:08.072Z,994.32
2018-05-11T04:45:08.090Z,994.33
2018-05-11T04:46:08.067Z,994.31
2018-05-11T04:47:08.066Z,994.34
2018-05-11T04:48:08.069Z,994.31
2018-05-11T04:49:08.066Z,994.3
2018-05-11T04:50:08.116Z,994.36
2018-05-11T04:51:08.060Z,994.35
2018-05-11T04:52:08.058Z,994.35
2018-05-11T04:53:08.075Z,994.36
2018-05-11T04:54:08.066Z,994.37
2018-05-11T04:55:08.076Z,994.4
2018-05-11T04:56:08.060Z,994.4
2018-05-11T04:57:08.051Z,994.44
2018-05-11T04:58:08.067Z,994.39
2018-05-11T04:59:08.050Z,994.36
2018-05-11T05:00:08.187Z,994.36
2018-05-11T05:01:09.654Z,994.3
2018-05-11T05:02:08.047Z,994.26
2018-05-11T05:03:08.088Z,994.26
2018-05-11T05:04:08.048Z,994.23
2018-05-11T05:05:08.077Z,994.22
2018-05-11T05:06:08.048Z,994.33
2018-05-11T05:07:08.050Z,994.29
2018-05-11T05:08:08.063Z,994.21
2018-05-11T05:09:08.056Z,994.17
2018-05-11T05:10:08.050Z,994.18
2018-05-11T05:11:08.055Z,994.15
2018-05-11T05:12:08.052Z,994.15
2018-05-11T05:13:08.060Z,994.17
2018-05-11T05:14:08.061Z,994.12
2018-05-11T05:15:08.119Z,994.12
2018-05-11T05:16:08.054Z,994.15
2018-05-11T05:17:08.053Z,994.17
2018-05-11T05:18:08.060Z,994.13
2018-05-11T05:19:08.188Z,994.16
2018-05-11T05:20:08.152Z,994.15
2018-05-11T05:21:08.053Z,994.19
2018-05-11T05:22:08.059Z,994.11
2018-05-11T05:23:08.062Z,994.16
2018-05-11T05:24:08.053Z,994.2
2018-05-11T05:25:08.058Z,994.21
2018-05-11T05:26:08.060Z,994.18
2018-05-11T05:27:08.068Z,994.19
2018-05-11T05:28:08.062Z,994.18
2018-05-11T05:29:08.057Z,994.15
2018-05-11T05:30:08.121Z,994.2
2018-05-11T05:31:08.058Z,994.22
2018-05-11T05:32:08.058Z,994.2
2018-05-11T05:33:08.174Z,994.16
2018-05-11T05:34:08.061Z,994.16
2018-05-11T05:35:08.119Z,994.19
2018-05-11T05:36:08.063Z,994.12
2018-05-11T05:37:08.060Z,994.12
2018-05-11T05:38:08.069Z,994.12
2018-05-11T05:39:08.150Z,994.11
2018-05-11T05:40:08.073Z,994.06
2018-05-11T05:41:08.069Z,994.1
2018-05-11T05:42:08.073Z,994.12
2018-05-11T05:43:08.100Z,994.1
2018-05-11T05:44:08.077Z,994.11
2018-05-11T05:45:08.103Z,994.11
2018-05-11T05:46:08.125Z,994.18
2018-05-11T05:47:08.090Z,994.09
2018-05-11T05:48:08.097Z,994.07
2018-05-11T05:49:08.095Z,994.12
2018-05-11T05:50:08.104Z,994.1
2018-05-11T05:51:08.110Z,994.13
2018-05-11T05:52:08.160Z,994.11
2018-05-11T05:53:08.119Z,994.13
2018-05-11T05:54:08.113Z,994.16
2018-05-11T05:55:08.129Z,994.14
2018-05-11T05:56:08.122Z,994.17
2018-05-11T05:57:08.127Z,994.16
2018-05-11T05:58:08.145Z,994.13
2018-05-11T05:59:08.135Z,994.15
2018-05-11T06:00:08.157Z,994.14
2018-05-11T06:01:08.147Z,994.13
2018-05-11T06:02:08.153Z,994.13
2018-05-11T06:03:08.154Z,994.08
2018-05-11T06:04:08.157Z,994.06
2018-05-11T06:05:08.236Z,994.1
2018-05-11T06:06:08.176Z,994.04
2018-05-11T06:07:08.175Z,994.09
2018-05-11T06:08:08.242Z,994.12
2018-05-11T06:09:08.181Z,994.11
2018-05-11T06:10:08.219Z,994.15
2018-05-11T06:11:08.193Z,994.1
2018-05-11T06:12:08.198Z,994.12
2018-05-11T06:13:08.209Z,994.13
2018-05-11T06:23:03.306Z,994.09
2018-05-11T06:24:03.256Z,994.11
2018-05-11T06:25:03.258Z,994.05
2018-05-11T06:26:03.259Z,994.07
2018-05-11T06:27:03.260Z,994.09
2018-05-11T06:28:03.275Z,994.1
2018-05-11T06:29:03.277Z,994.13
2018-05-11T06:30:03.297Z,994.12
2018-05-11T06:31:03.274Z,994.09
2018-05-11T06:32:03.277Z,994.1
2018-05-11T06:33:03.278Z,994.07
2018-05-11T06:34:03.285Z,994.07
2018-05-11T06:35:03.290Z,994.06
2018-05-11T06:36:03.290Z,994.08
2018-05-11T06:37:03.295Z,994.08
2018-05-11T06:38:03.298Z,994.1
2018-05-11T06:39:03.304Z,994.06
2018-05-11T06:40:03.311Z,994.08
2018-05-11T06:41:03.317Z,994.07
2018-05-11T06:42:03.316Z,994.04
2018-05-11T06:43:03.341Z,994.1
2018-05-11T06:44:03.325Z,994.07
2018-05-11T06:45:03.332Z,994.05
2018-05-11T06:46:03.345Z,994.09
2018-05-11T06:47:03.341Z,994.09
2018-05-11T06:48:03.343Z,994.05
2018-05-11T06:49:03.349Z,994.05
2018-05-11T06:50:03.353Z,994.06
2018-05-11T06:51:03.365Z,994.08
2018-05-11T06:52:03.366Z,994.07
2018-05-11T06:53:03.376Z,994.06
2018-05-11T06:54:03.376Z,994.08
2018-05-11T06:55:03.384Z,994.05
2018-05-11T06:56:03.400Z,994.06
2018-05-11T06:57:03.395Z,994.06
2018-05-11T06:58:03.398Z,993.99
2018-05-11T06:59:03.404Z,994.01
2018-05-11T07:00:03.420Z,993.95
2018-05-11T07:01:03.417Z,993.91
2018-05-11T07:02:03.420Z,993.87
2018-05-11T07:03:03.429Z,993.86
2018-05-11T07:04:03.452Z,993.83
2018-05-11T07:05:03.442Z,993.85
2018-05-11T07:06:03.445Z,993.86
2018-05-11T07:07:03.452Z,993.89
2018-05-11T07:08:03.544Z,993.87
2018-05-11T07:09:03.473Z,993.86
2018-05-11T07:10:03.469Z,993.82
2018-05-11T07:11:03.476Z,993.78
2018-05-11T07:12:03.495Z,993.75
2018-05-11T07:13:03.489Z,993.76
2018-05-11T07:14:03.494Z,993.72
2018-05-11T07:15:03.502Z,993.66
2018-05-11T07:16:03.508Z,993.7
2018-05-11T07:17:03.515Z,993.71
2018-05-11T07:18:03.520Z,993.65
2018-05-11T07:19:03.522Z,993.67
2018-05-11T07:20:03.532Z,993.69
2018-05-11T07:21:03.536Z,993.67
2018-05-11T07:22:03.587Z,993.65
2018-05-11T07:23:03.551Z,993.65
2018-05-11T07:24:03.561Z,993.65
2018-05-11T07:25:03.557Z,993.7
2018-05-11T07:26:03.567Z,993.63
2018-05-11T07:27:03.569Z,993.61
2018-05-11T07:28:03.572Z,993.52
2018-05-11T07:29:03.596Z,993.65
2018-05-11T07:30:03.590Z,993.65
2018-05-11T07:31:03.593Z,993.64
2018-05-11T07:32:03.599Z,993.62
2018-05-11T07:33:03.601Z,993.61
2018-05-11T07:34:03.609Z,993.61
2018-05-11T07:35:03.693Z,993.63
2018-05-11T07:36:03.625Z,993.64
2018-05-11T07:37:03.859Z,993.66
2018-05-11T07:38:03.635Z,993.67
2018-05-11T07:39:03.728Z,993.64
2018-05-11T07:40:03.645Z,993.7
2018-05-11T07:41:03.650Z,993.66
2018-05-11T07:42:03.688Z,993.7
2018-05-11T07:43:03.681Z,993.69
2018-05-11T07:44:03.665Z,993.71
2018-05-11T07:45:03.672Z,993.73
2018-05-11T07:46:03.678Z,993.73
2018-05-11T07:47:03.690Z,993.69
2018-05-11T07:48:03.689Z,993.72
2018-05-11T07:49:03.696Z,993.65
2018-05-11T07:50:03.699Z,993.69
2018-05-11T07:51:03.706Z,993.7
2018-05-11T07:52:03.710Z,993.66
2018-05-11T07:53:03.715Z,993.68
2018-05-11T07:54:03.721Z,993.69
2018-05-11T07:55:03.725Z,993.67
2018-05-11T07:56:03.730Z,993.59
2018-05-11T07:57:03.737Z,993.59
2018-05-11T07:58:03.740Z,993.62
2018-05-11T07:59:03.746Z,993.67
2018-05-11T08:00:03.752Z,993.63
2018-05-11T08:01:03.757Z,993.61
2018-05-11T08:02:03.760Z,993.62
2018-05-11T08:03:03.769Z,993.49
2018-05-11T08:04:03.805Z,993.62
2018-05-11T08:05:03.780Z,993.57
2018-05-11T08:06:03.784Z,993.61
2018-05-11T08:07:03.798Z,993.6
2018-05-11T08:08:03.787Z,993.55
2018-05-11T08:09:03.792Z,993.53
2018-05-11T08:10:03.809Z,993.45
2018-05-11T08:11:03.811Z,993.4
2018-05-11T08:12:03.807Z,993.46
2018-05-11T08:13:03.813Z,993.51
2018-05-11T08:14:03.859Z,993.53
2018-05-11T08:15:03.823Z,993.52
2018-05-11T08:16:03.827Z,993.63
2018-05-11T08:17:03.830Z,993.53
2018-05-11T08:18:03.835Z,993.46
2018-05-11T08:19:03.838Z,993.49
2018-05-11T08:20:03.843Z,993.56
2018-05-11T08:21:03.850Z,993.59
2018-05-11T08:22:03.925Z,993.65
2018-05-11T08:23:03.855Z,993.65
2018-05-11T08:24:03.863Z,993.51
2018-05-11T08:25:03.881Z,993.51
2018-05-11T08:26:03.869Z,993.54
2018-05-11T08:27:03.875Z,993.54
2018-05-11T08:28:03.880Z,993.44
2018-05-11T08:29:03.886Z,993.55
2018-05-11T08:30:03.891Z,993.5
2018-05-11T08:31:03.902Z,993.47
2018-05-11T08:32:03.898Z,993.4
2018-05-11T08:33:03.903Z,993.46
2018-05-11T08:34:03.914Z,993.51
2018-05-11T08:35:03.912Z,993.52
2018-05-11T08:36:03.938Z,993.58
2018-05-11T08:37:04.277Z,993.61
2018-05-11T08:38:03.937Z,993.62
2018-05-11T08:39:03.930Z,993.59
2018-05-11T08:40:03.933Z,993.67
2018-05-11T08:41:03.939Z,993.57
2018-05-11T08:42:03.940Z,993.52
2018-05-11T08:43:03.940Z,993.62
2018-05-11T08:44:03.941Z,993.57
2018-05-11T08:45:03.952Z,993.51
2018-05-11T08:46:03.952Z,993.48
2018-05-11T08:47:03.956Z,993.48
2018-05-11T08:48:03.962Z,993.43
2018-05-11T08:49:03.963Z,993.37
2018-05-11T08:50:03.964Z,993.4
2018-05-11T08:51:03.978Z,993.56
2018-05-11T08:52:03.980Z,993.51
2018-05-11T08:53:03.980Z,993.49
2018-05-11T08:54:03.982Z,993.34
2018-05-11T08:55:03.988Z,993.32
2018-05-11T08:56:03.992Z,993.32
2018-05-11T08:57:04.052Z,993.27
2018-05-11T08:58:04.014Z,993.28
2018-05-11T08:59:04.001Z,993.3
2018-05-11T09:00:04.005Z,993.3
2018-05-11T09:01:04.013Z,993.28
2018-05-11T09:02:04.013Z,993.3
2018-05-11T09:03:04.114Z,993.27
2018-05-11T09:04:04.022Z,993.27
2018-05-11T09:05:04.023Z,993.3
2018-05-11T09:06:04.029Z,993.31
2018-05-11T09:07:04.047Z,993.35
2018-05-11T09:08:04.042Z,993.34
2018-05-11T09:09:04.288Z,993.38
2018-05-11T09:10:04.041Z,993.4
2018-05-11T09:11:04.051Z,993.37
2018-05-11T09:12:04.049Z,993.26
2018-05-11T09:13:04.049Z,993.26
2018-05-11T09:14:04.059Z,993.26
2018-05-11T09:15:04.062Z,993.24
2018-05-11T09:16:04.061Z,993.26
2018-05-11T09:17:04.067Z,993.25
2018-05-11T09:18:04.155Z,993.26
2018-05-11T09:19:04.071Z,993.25
2018-05-11T09:20:04.079Z,993.19
2018-05-11T09:21:04.082Z,993.19
2018-05-11T09:22:04.164Z,993.27
2018-05-11T09:23:04.086Z,993.21
2018-05-11T09:24:04.137Z,993.18
2018-05-11T09:25:04.091Z,993.09
2018-05-11T09:26:04.106Z,993.07
2018-05-11T09:27:04.107Z,993.05
2018-05-11T09:28:04.107Z,993
2018-05-11T09:29:04.111Z,993.03
2018-05-11T09:30:04.121Z,993.1
2018-05-11T09:31:04.109Z,993.03
2018-05-11T09:32:04.112Z,993.1
2018-05-11T09:33:04.115Z,993.01
2018-05-11T09:34:04.122Z,993.02
2018-05-11T09:35:04.124Z,993.03
2018-05-11T09:36:04.139Z,993.03
2018-05-11T09:37:04.130Z,993.06
2018-05-11T09:38:04.131Z,993.13
2018-05-11T09:39:05.735Z,993.01
2018-05-11T09:40:04.153Z,993.03
2018-05-11T09:41:04.143Z,993.07
2018-05-11T09:42:04.148Z,993.09
2018-05-11T09:43:04.145Z,993.08
2018-05-11T09:44:04.149Z,993.13
2018-05-11T09:45:04.152Z,993.12
2018-05-11T09:46:04.156Z,993.01
2018-05-11T09:47:04.158Z,993.01
2018-05-11T09:48:04.165Z,993.06
2018-05-11T09:49:04.169Z,993.08
2018-05-11T09:50:04.172Z,993.11
2018-05-11T09:51:04.179Z,993.18
2018-05-11T09:52:04.173Z,993.17
2018-05-11T09:53:04.178Z,993.14
2018-05-11T09:54:04.177Z,993.09
2018-05-11T09:55:04.214Z,992.98
2018-05-11T09:56:04.179Z,992.93
2018-05-11T09:57:04.182Z,992.94
2018-05-11T09:58:04.182Z,992.91
2018-05-11T09:59:04.184Z,992.97
2018-05-11T10:00:04.197Z,992.95
2018-05-11T10:01:04.197Z,992.93
2018-05-11T10:02:04.194Z,992.88
2018-05-11T10:03:04.206Z,992.89
2018-05-11T10:04:04.269Z,992.89
2018-05-11T10:05:04.273Z,992.89
2018-05-11T10:06:04.204Z,992.84
2018-05-11T10:07:04.205Z,992.86
2018-05-11T10:08:04.207Z,992.87
2018-05-11T10:09:04.213Z,992.88
2018-05-11T10:10:04.212Z,992.9
2018-05-11T10:11:04.216Z,992.9
2018-05-11T10:12:04.217Z,992.95
2018-05-11T10:13:04.218Z,992.87
2018-05-11T10:14:04.222Z,992.83
2018-05-11T10:15:04.228Z,992.81
2018-05-11T10:16:04.224Z,992.87
2018-05-11T10:17:04.228Z,992.84
2018-05-11T10:18:04.233Z,992.88
2018-05-11T10:19:04.233Z,992.89
2018-05-11T10:20:04.234Z,992.86
2018-05-11T10:21:04.245Z,992.78
2018-05-11T10:22:04.240Z,992.77
2018-05-11T10:23:04.244Z,992.79
2018-05-11T10:53:18.212Z,992.65
2018-05-11T10:54:18.161Z,992.73
2018-05-11T10:55:18.158Z,992.72
2018-05-11T10:56:18.154Z,992.66
2018-05-11T10:57:18.155Z,992.66
2018-05-11T10:58:18.157Z,992.72
2018-05-11T10:59:18.158Z,992.72
2018-05-11T11:00:18.159Z,992.74
2018-05-11T11:01:18.165Z,992.67
2018-05-11T11:02:18.261Z,992.66
2018-05-11T11:03:18.161Z,992.62
2018-05-11T11:04:18.166Z,992.56
2018-05-11T11:05:18.178Z,992.5
2018-05-11T11:06:18.169Z,992.53
2018-05-11T11:07:18.177Z,992.53
2018-05-11T11:08:18.219Z,992.55
2018-05-11T11:09:18.175Z,992.51
2018-05-11T11:10:18.177Z,992.6
2018-05-11T11:11:18.176Z,992.58
2018-05-11T11:12:18.180Z,992.59
2018-05-11T11:13:18.185Z,992.43
2018-05-11T11:14:18.193Z,992.42
2018-05-11T11:15:18.187Z,992.43
2018-05-11T11:16:18.188Z,992.43
2018-05-11T11:17:18.193Z,992.45
2018-05-11T11:18:18.193Z,992.45
2018-05-11T11:19:18.196Z,992.45
2018-05-11T11:20:18.199Z,992.53
2018-05-11T11:21:18.218Z,992.52
2018-05-11T11:22:18.213Z,992.49
2018-05-11T11:23:18.260Z,992.41
2018-05-11T11:24:18.222Z,992.32
2018-05-11T11:25:18.214Z,992.26
2018-05-11T11:26:18.215Z,992.24
2018-05-11T11:27:18.216Z,992.3
2018-05-11T11:28:18.219Z,992.21
2018-05-11T11:29:18.236Z,992.17
2018-05-11T11:30:18.274Z,992.19
2018-05-11T11:31:18.247Z,992.2
2018-05-11T11:32:18.229Z,992.18
2018-05-11T11:33:18.233Z,992.08
2018-05-11T11:34:18.265Z,992.2
2018-05-11T11:35:18.237Z,992.14
2018-05-11T11:36:18.243Z,992.12
2018-05-11T11:37:18.242Z,992.1
2018-05-11T11:38:18.547Z,992.07
2018-05-11T11:39:18.250Z,992.12
2018-05-11T11:40:18.254Z,992.09
2018-05-11T11:41:18.254Z,992.08
2018-05-11T11:42:18.293Z,992.1
2018-05-11T11:43:18.260Z,992.03
2018-05-11T11:44:18.261Z,992.07
2018-05-11T11:45:18.268Z,991.98
2018-05-11T11:46:18.268Z,991.93
2018-05-11T11:47:18.300Z,991.93
2018-05-11T11:48:18.274Z,991.88
2018-05-11T11:49:18.274Z,991.88
2018-05-11T11:50:18.278Z,991.91
2018-05-11T11:51:18.280Z,991.91
2018-05-11T11:52:18.286Z,991.93
2018-05-11T11:53:18.289Z,991.86
2018-05-11T11:54:18.294Z,991.84
2018-05-11T11:55:18.296Z,991.85
2018-05-11T11:56:18.299Z,991.81
2018-05-11T11:57:18.300Z,991.8
2018-05-11T11:58:18.301Z,991.79
2018-05-11T11:59:18.315Z,991.77
2018-05-11T12:00:18.307Z,991.8
2018-05-11T12:01:18.313Z,991.78
2018-05-11T12:02:18.317Z,991.79
2018-05-11T12:03:18.322Z,991.86
2018-05-11T12:04:18.320Z,991.72
2018-05-11T12:05:18.329Z,991.75
2018-05-11T12:06:18.328Z,991.72
2018-05-11T12:07:18.331Z,991.74
2018-05-11T12:08:18.334Z,991.7
2018-05-11T12:09:18.349Z,991.67
2018-05-11T12:10:18.340Z,991.68
2018-05-11T12:11:18.346Z,991.72
2018-05-11T12:12:18.355Z,991.75
2018-05-11T12:13:18.349Z,991.76
2018-05-11T12:14:18.351Z,991.7
2018-05-11T12:15:18.354Z,991.75
2018-05-11T12:16:18.359Z,991.74
2018-05-11T12:17:18.362Z,991.79
2018-05-11T12:18:18.364Z,991.77
2018-05-11T12:19:18.372Z,991.79
2018-05-11T12:20:18.373Z,991.8
2018-05-11T12:21:18.376Z,991.75
2018-05-11T12:22:18.385Z,991.75
2018-05-11T12:23:18.379Z,991.74
2018-05-11T12:24:18.389Z,991.76
2018-05-11T12:25:18.390Z,991.71
2018-05-11T12:26:18.400Z,991.63
2018-05-11T12:27:18.394Z,991.63
2018-05-11T12:28:18.397Z,991.64
2018-05-11T12:29:18.403Z,991.67
2018-05-11T12:30:18.411Z,991.64
2018-05-11T12:31:18.408Z,991.66
2018-05-11T12:32:18.413Z,991.67
2018-05-11T12:33:18.415Z,991.67
2018-05-11T12:34:18.423Z,991.62
2018-05-11T12:35:18.421Z,991.63
2018-05-11T12:36:18.425Z,991.59
2018-05-11T12:37:18.429Z,991.68
2018-05-11T12:38:18.433Z,991.61
2018-05-11T12:39:18.685Z,991.61
2018-05-11T12:40:18.440Z,991.61
2018-05-11T12:41:18.442Z,991.62
2018-05-11T12:42:18.447Z,991.55
2018-05-11T12:43:18.450Z,991.55
2018-05-11T12:44:18.461Z,991.51
2018-05-11T12:45:18.460Z,991.49
2018-05-11T12:46:18.461Z,991.48
2018-05-11T12:47:18.476Z,991.55
2018-05-11T12:48:18.470Z,991.51
2018-05-11T12:49:18.474Z,991.55
2018-05-11T12:50:18.476Z,991.5
2018-05-11T12:51:18.485Z,991.44
2018-05-11T12:52:18.504Z,991.42
2018-05-11T12:53:18.487Z,991.41
2018-05-11T12:54:18.491Z,991.4
2018-05-11T12:55:18.507Z,991.35
2018-05-11T12:56:18.501Z,991.33
2018-05-11T12:57:18.504Z,991.38
2018-05-11T12:58:18.507Z,991.39
2018-05-11T12:59:18.515Z,991.43
2018-05-11T13:00:18.515Z,991.36
2018-05-11T13:01:18.534Z,991.34
2018-05-11T13:02:18.522Z,991.32
2018-05-11T13:03:18.524Z,991.33
2018-05-11T13:04:18.529Z,991.3
2018-05-11T13:05:18.537Z,991.25
2018-05-11T13:06:18.536Z,991.29
2018-05-11T13:07:18.660Z,991.25
2018-05-11T13:08:18.540Z,991.28
2018-05-11T13:09:18.553Z,991.28